createdAt,value
2018-12-10T00:00:09.477Z,46.20
2018-12-10T00:02:35.297Z,46.50
2018-12-10T00:05:01.129Z,45.80
2018-12-10T00:07:27.360Z,45.90
2018-12-10T00:09:53.578Z,46.40
2018-12-10T00:12:19.397Z,45.80
2018-12-10T00:14:45.212Z,45.80
2018-12-10T00:17:11.052Z,45.80
2018-12-10T00:19:37.263Z,45.80
2018-12-10T00:22:03.073Z,45.80
2018-12-10T00:24:29.316Z,45.90
2018-12-10T00:26:55.335Z,46.00
2018-12-10T00:29:21.355Z,45.80
2018-12-10T00:31:47.175Z,45.90
2018-12-10T00:34:12.988Z,45.80
2018-12-10T00:36:38.806Z,46.00
2018-12-10T00:39:04.629Z,45.90
2018-12-10T00:41:30.460Z,45.50
2018-12-10T00:43:56.678Z,45.60
2018-12-10T00:46:22.662Z,45.60
2018-12-10T00:48:49.129Z,45.60
2018-12-10T00:51:14.950Z,45.40
2018-12-10T00:53:40.780Z,45.60
2018-12-10T00:56:06.996Z,46.30
2018-12-10T00:58:32.812Z,45.60
2018-12-10T01:00:58.633Z,46.00
2018-12-10T01:03:24.453Z,45.70
2018-12-10T01:05:50.278Z,45.50
2018-12-10T01:08:16.082Z,45.50
2018-12-10T01:10:41.934Z,45.60
2018-12-10T01:13:07.784Z,45.60
2018-12-10T01:15:33.991Z,45.60
2018-12-10T01:18:00.593Z,45.50
2018-12-10T01:20:26.418Z,45.50
2018-12-10T01:22:52.524Z,45.50
2018-12-10T01:25:18.465Z,45.40
2018-12-10T01:27:44.281Z,45.50
2018-12-10T01:30:10.107Z,45.40
2018-12-10T01:32:35.918Z,45.30
2018-12-10T01:35:01.741Z,45.30
2018-12-10T01:37:27.555Z,45.30
2018-12-10T01:39:53.372Z,45.40
2018-12-10T01:42:19.193Z,45.40
2018-12-10T01:44:45.025Z,45.60
2018-12-10T01:47:11.243Z,46.10
2018-12-10T01:49:37.061Z,45.60
2018-12-10T01:52:02.878Z,45.40
2018-12-10T01:54:28.693Z,45.40
2018-12-10T01:56:54.924Z,45.50
2018-12-10T01:59:20.750Z,45.60
2018-12-10T02:01:46.562Z,45.50
2018-12-10T02:04:12.392Z,45.60
2018-12-10T02:06:38.620Z,46.10
2018-12-10T02:09:04.852Z,45.60
2018-12-10T02:11:31.066Z,45.70
2018-12-10T02:13:56.876Z,45.40
2018-12-10T02:16:22.710Z,45.50
2018-12-10T02:18:48.520Z,45.40
2018-12-10T02:21:14.344Z,45.50
2018-12-10T02:23:40.166Z,45.60
2018-12-10T02:26:06.391Z,45.70
2018-12-10T02:28:32.207Z,45.70
2018-12-10T02:30:58.022Z,45.70
2018-12-10T02:33:23.845Z,45.60
2018-12-10T02:35:49.658Z,45.60
2018-12-10T02:38:15.496Z,45.40
2018-12-10T02:40:41.716Z,45.50
2018-12-10T02:43:07.946Z,45.40
2018-12-10T02:45:34.167Z,45.60
2018-12-10T02:47:59.984Z,45.40
2018-12-10T02:50:25.813Z,45.30
2018-12-10T02:52:52.034Z,45.20
2018-12-10T02:55:17.850Z,45.30
2018-12-10T02:57:43.676Z,45.30
2018-12-10T03:00:09.919Z,45.20
2018-12-10T03:02:36.125Z,45.30
2018-12-10T03:05:02.010Z,45.20
2018-12-10T03:07:28.586Z,45.30
2018-12-10T03:09:54.632Z,45.30
2018-12-10T03:12:20.632Z,45.30
2018-12-10T03:14:46.457Z,45.40
2018-12-10T03:17:12.724Z,45.30
2018-12-10T03:19:39.321Z,45.30
2018-12-10T03:22:05.562Z,45.30
2018-12-10T03:24:31.768Z,45.30
2018-12-10T03:26:57.605Z,45.30
2018-12-10T03:29:23.814Z,45.40
2018-12-10T03:31:49.629Z,45.20
2018-12-10T03:34:15.450Z,45.20
2018-12-10T03:36:41.268Z,45.80
2018-12-10T03:39:07.102Z,45.20
2018-12-10T03:41:33.324Z,45.10
2018-12-10T03:43:59.144Z,45.20
2018-12-10T03:46:25.372Z,45.20
2018-12-10T03:48:51.185Z,45.20
2018-12-10T03:51:16.998Z,45.40
2018-12-10T03:53:42.822Z,45.40
2018-12-10T03:56:08.633Z,45.90
2018-12-10T03:58:34.461Z,45.30
2018-12-10T04:01:00.260Z,45.30
2018-12-10T04:03:26.065Z,45.30
2018-12-10T04:05:51.872Z,45.20
2018-12-10T04:08:17.735Z,45.20
2018-12-10T04:10:43.550Z,45.20
2018-12-10T04:13:09.382Z,45.20
2018-12-10T04:15:35.599Z,45.20
2018-12-10T04:18:01.423Z,45.40
2018-12-10T04:20:27.650Z,44.90
2018-12-10T04:22:53.463Z,45.00
2018-12-10T04:25:19.451Z,45.00
2018-12-10T04:27:45.922Z,45.00
2018-12-10T04:30:11.993Z,45.00
2018-12-10T04:32:37.800Z,45.10
2018-12-10T04:35:03.793Z,45.10
2018-12-10T04:37:29.603Z,45.00
2018-12-10T04:39:55.417Z,45.10
2018-12-10T04:42:21.648Z,45.20
2018-12-10T04:44:47.482Z,45.00
2018-12-10T04:47:13.489Z,45.60
2018-12-10T04:49:39.522Z,45.20
2018-12-10T04:52:05.752Z,45.10
2018-12-10T04:54:31.979Z,45.20
2018-12-10T04:56:58.196Z,45.30
2018-12-10T04:59:24.022Z,45.10
2018-12-10T05:01:50.253Z,45.10
2018-12-10T05:06:47.988Z,45.20
2018-12-10T05:09:13.811Z,45.20
2018-12-10T05:11:39.674Z,45.30
2018-12-10T05:14:05.889Z,45.30
2018-12-10T05:16:31.717Z,45.30
2018-12-10T05:18:57.946Z,45.40
2018-12-10T05:21:23.760Z,45.40
2018-12-10T05:23:49.981Z,45.30
2018-12-10T05:26:15.809Z,45.40
2018-12-10T05:28:42.048Z,45.40
2018-12-10T05:31:08.273Z,45.40
2018-12-10T05:33:34.476Z,45.40
2018-12-10T05:36:00.310Z,45.30
2018-12-10T05:38:26.132Z,45.40
2018-12-10T05:40:52.356Z,45.40
2018-12-10T05:43:18.190Z,45.20
2018-12-10T05:45:44.409Z,45.30
2018-12-10T05:48:10.626Z,45.50
2018-12-10T05:50:36.442Z,45.50
2018-12-10T05:53:02.256Z,45.60
2018-12-10T05:55:28.094Z,45.50
2018-12-10T05:57:54.308Z,45.60
2018-12-10T06:00:20.121Z,45.40
2018-12-10T06:02:45.942Z,45.40
2018-12-10T06:05:11.761Z,45.40
2018-12-10T06:07:37.593Z,45.40
2018-12-10T06:10:04.264Z,45.40
2018-12-10T06:12:30.862Z,45.30
2018-12-10T06:14:56.685Z,45.30
2018-12-10T06:17:22.905Z,45.40
2018-12-10T06:19:49.141Z,45.40
2018-12-10T06:22:14.946Z,45.50
2018-12-10T06:24:40.765Z,45.40
2018-12-10T06:27:06.582Z,46.00
2018-12-10T06:29:32.401Z,45.50
2018-12-10T06:31:58.326Z,46.10
2018-12-10T06:34:24.876Z,45.60
2018-12-10T06:36:51.105Z,45.60
2018-12-10T06:39:16.908Z,45.50
2018-12-10T06:41:44.370Z,45.60
2018-12-10T06:44:10.398Z,45.40
2018-12-10T06:46:36.405Z,45.70
2018-12-10T06:49:02.232Z,45.60
2018-12-10T06:51:28.460Z,45.80
2018-12-10T06:53:54.271Z,45.60
2018-12-10T06:56:20.512Z,45.60
2018-12-10T06:58:46.409Z,46.10
2018-12-10T07:01:14.597Z,45.60
2018-12-10T07:03:40.417Z,45.80
2018-12-10T07:06:06.650Z,45.60
2018-12-10T07:08:32.865Z,45.70
2018-12-10T07:10:59.111Z,45.70
2018-12-10T07:13:25.322Z,46.10
2018-12-10T07:15:51.548Z,45.40
2018-12-10T07:18:17.382Z,45.50
2018-12-10T07:20:43.595Z,45.40
2018-12-10T07:23:09.409Z,45.50
2018-12-10T07:25:35.233Z,45.60
2018-12-10T07:28:01.045Z,45.60
2018-12-10T07:30:26.875Z,46.30
2018-12-10T07:32:52.686Z,45.70
2018-12-10T07:35:18.527Z,45.60
2018-12-10T07:37:44.742Z,45.60
2018-12-10T07:40:10.966Z,45.50
2018-12-10T07:42:37.202Z,45.50
2018-12-10T07:45:03.013Z,45.50
2018-12-10T07:47:29.233Z,45.40
2018-12-10T07:49:55.049Z,45.50
2018-12-10T07:52:21.278Z,45.60
2018-12-10T07:54:47.101Z,45.70
2018-12-10T07:57:13.122Z,46.10
2018-12-10T07:59:39.970Z,45.70
2018-12-10T08:02:05.857Z,45.70
2018-12-10T08:04:32.020Z,45.70
2018-12-10T08:06:58.024Z,45.70
2018-12-10T08:09:24.055Z,45.70
2018-12-10T08:11:49.893Z,45.60
2018-12-10T08:14:16.095Z,45.60
2018-12-10T08:16:41.921Z,45.70
2018-12-10T08:19:08.153Z,45.70
2018-12-10T08:21:34.375Z,45.70
2018-12-10T08:24:00.185Z,45.80
2018-12-10T08:26:26.010Z,45.80
2018-12-10T08:29:00.079Z,45.90
2018-12-10T08:31:18.882Z,45.90
2018-12-10T08:33:45.096Z,45.90
2018-12-10T08:36:10.932Z,45.80
2018-12-10T08:38:37.401Z,45.70
2018-12-10T08:41:03.382Z,45.80
2018-12-10T08:43:29.608Z,45.80
2018-12-10T08:45:55.414Z,45.80
2018-12-10T08:48:21.658Z,45.70
2018-12-10T08:50:47.780Z,45.80
2018-12-10T08:53:13.683Z,45.60
2018-12-10T08:55:39.524Z,45.70
2018-12-10T08:58:05.742Z,45.70
2018-12-10T09:00:31.553Z,45.70
2018-12-10T09:02:57.371Z,45.80
2018-12-10T09:05:23.206Z,45.80
2018-12-10T09:07:49.415Z,45.90
2018-12-10T09:10:15.240Z,45.90
2018-12-10T09:12:47.041Z,46.00
2018-12-10T09:15:07.706Z,45.90
2018-12-10T09:17:33.930Z,45.80
2018-12-10T09:20:00.158Z,45.90
2018-12-10T09:22:26.378Z,45.80
2018-12-10T09:24:52.193Z,45.80
2018-12-10T09:27:18.015Z,45.80
2018-12-10T09:29:43.979Z,45.70
2018-12-10T09:32:10.053Z,45.70
2018-12-10T09:34:36.289Z,45.60
2018-12-10T09:37:02.100Z,45.70
2018-12-10T09:39:27.913Z,45.70
2018-12-10T09:41:53.746Z,45.80
2018-12-10T09:44:19.556Z,45.70
2018-12-10T09:46:45.390Z,45.70
2018-12-10T09:49:11.207Z,45.80
2018-12-10T09:51:37.434Z,45.70
2018-12-10T09:54:03.673Z,45.80
2018-12-10T09:56:29.913Z,45.80
2018-12-10T09:58:56.523Z,46.10
2018-12-10T10:01:22.747Z,45.90
2018-12-10T10:03:49.381Z,45.90
2018-12-10T10:06:15.623Z,45.90
2018-12-10T10:08:41.445Z,45.80
2018-12-10T10:11:07.652Z,45.60
2018-12-10T10:13:33.482Z,45.70
2018-12-10T10:15:59.709Z,45.90
2018-12-10T10:18:25.531Z,46.00
2018-12-10T10:20:51.336Z,46.00
2018-12-10T10:23:17.166Z,45.90
2018-12-10T10:25:42.982Z,45.90
2018-12-10T10:28:08.806Z,45.90
2018-12-10T10:30:34.618Z,45.90
2018-12-10T10:33:00.436Z,46.00
2018-12-10T10:35:26.247Z,46.00
2018-12-10T10:37:52.383Z,46.00
2018-12-10T10:40:18.305Z,46.00
2018-12-10T10:42:44.531Z,46.00
2018-12-10T10:45:10.347Z,46.10
2018-12-10T10:47:36.153Z,46.00
2018-12-10T10:50:01.995Z,46.10
2018-12-10T10:52:33.148Z,46.10
2018-12-10T10:54:54.841Z,46.20
2018-12-10T10:57:21.073Z,46.10
2018-12-10T10:59:46.890Z,46.20
2018-12-10T11:02:13.122Z,46.20
2018-12-10T11:04:38.929Z,46.20
2018-12-10T11:07:05.033Z,46.20
2018-12-10T11:09:30.973Z,46.20
2018-12-10T11:11:57.209Z,46.20
2018-12-10T11:14:23.022Z,46.30
2018-12-10T11:16:48.845Z,46.20
2018-12-10T11:19:14.664Z,46.20
2018-12-10T11:21:40.483Z,46.10
2018-12-10T11:24:06.284Z,46.10
2018-12-10T11:26:32.119Z,46.10
2018-12-10T11:28:57.936Z,46.30
2018-12-10T11:31:23.752Z,46.20
2018-12-10T11:33:49.574Z,46.10
2018-12-10T11:36:15.387Z,46.10
2018-12-10T11:38:41.207Z,46.10
2018-12-10T11:41:07.019Z,46.20
2018-12-10T11:43:32.845Z,46.20
2018-12-10T11:45:58.652Z,46.30
2018-12-10T11:48:24.482Z,46.10
2018-12-10T11:50:50.302Z,46.20
2018-12-10T11:53:16.318Z,46.20
2018-12-10T11:55:42.349Z,46.20
2018-12-10T11:58:08.561Z,46.10
2018-12-10T12:00:34.388Z,46.10
2018-12-10T12:03:00.192Z,46.10
2018-12-10T12:05:26.021Z,46.00
2018-12-10T12:07:51.849Z,46.10
2018-12-10T12:10:18.056Z,46.20
2018-12-10T12:12:43.877Z,46.20
2018-12-10T12:15:09.707Z,46.20
2018-12-10T12:17:35.933Z,46.10
2018-12-10T12:20:01.747Z,46.20
2018-12-10T12:22:27.573Z,46.20
2018-12-10T12:24:53.793Z,46.30
2018-12-10T12:27:19.602Z,46.30
2018-12-10T12:29:45.428Z,46.30
2018-12-10T12:32:11.242Z,46.40
2018-12-10T12:34:37.475Z,46.30
2018-12-10T12:37:03.305Z,46.40
2018-12-10T12:39:29.512Z,46.30
2018-12-10T12:41:55.333Z,46.30
2018-12-10T12:44:21.148Z,46.90
2018-12-10T12:46:46.968Z,46.50
2018-12-10T12:49:13.198Z,46.40
2018-12-10T12:51:39.032Z,46.50
2018-12-10T12:54:05.257Z,46.40
2018-12-10T12:56:31.057Z,46.50
2018-12-10T12:58:56.872Z,46.50
2018-12-10T13:01:22.698Z,46.90
2018-12-10T13:03:48.524Z,46.50
2018-12-10T13:06:14.756Z,46.50
2018-12-10T13:08:40.973Z,46.50
2018-12-10T13:11:07.085Z,46.40
2018-12-10T13:13:33.441Z,46.50
2018-12-10T13:15:59.662Z,46.40
2018-12-10T13:18:25.887Z,46.40
2018-12-10T13:20:52.096Z,46.50
2018-12-10T13:23:17.934Z,46.60
2018-12-10T13:25:44.685Z,46.80
2018-12-10T13:28:10.593Z,46.80
2018-12-10T13:30:36.663Z,46.70
2018-12-10T13:33:03.270Z,46.80
2018-12-10T13:35:29.477Z,46.70
2018-12-10T13:37:55.679Z,46.60
2018-12-10T13:40:21.528Z,46.70
2018-12-10T13:42:47.889Z,46.80
2018-12-10T13:45:13.611Z,46.70
2018-12-10T13:47:40.201Z,46.60
2018-12-10T13:50:06.022Z,46.60
2018-12-10T13:52:31.842Z,46.70
2018-12-10T13:54:57.669Z,46.70
2018-12-10T13:57:23.906Z,46.70
2018-12-10T13:59:50.037Z,46.60
2018-12-10T14:02:15.941Z,46.50
2018-12-10T14:04:42.169Z,46.50
2018-12-10T14:07:08.009Z,46.50
2018-12-10T14:09:34.197Z,46.50
2018-12-10T14:12:00.439Z,46.50
2018-12-10T14:14:26.538Z,46.70
2018-12-10T14:16:52.465Z,46.60
2018-12-10T14:19:18.298Z,46.70
2018-12-10T14:21:44.325Z,46.60
2018-12-10T14:24:10.337Z,46.70
2018-12-10T14:26:36.166Z,46.60
2018-12-10T14:29:02.396Z,47.00
2018-12-10T14:31:28.651Z,46.40
2018-12-10T14:33:55.246Z,46.40
2018-12-10T14:36:21.069Z,46.40
2018-12-10T14:38:47.085Z,46.50
2018-12-10T14:41:13.115Z,46.60
2018-12-10T14:43:38.926Z,46.50
2018-12-10T14:46:04.745Z,46.40
2018-12-10T14:48:30.574Z,46.40
2018-12-10T14:50:56.380Z,46.40
2018-12-10T14:53:22.198Z,46.30
2018-12-10T14:55:48.023Z,46.20
2018-12-10T14:58:13.845Z,46.30
2018-12-10T15:00:39.649Z,46.20
2018-12-10T15:03:05.475Z,46.10
2018-12-10T15:05:31.299Z,46.20
2018-12-10T15:07:57.517Z,46.20
2018-12-10T15:10:23.488Z,46.20
2018-12-10T15:12:50.797Z,46.30
2018-12-10T15:15:16.618Z,46.20
2018-12-10T15:17:42.433Z,46.10
2018-12-10T15:20:08.257Z,46.00
2018-12-10T15:22:34.477Z,46.00
2018-12-10T15:25:00.290Z,46.00
2018-12-10T15:27:26.107Z,46.50
2018-12-10T15:29:51.930Z,46.50
2018-12-10T15:32:17.754Z,46.50
2018-12-10T15:34:43.570Z,45.80
2018-12-10T15:37:09.387Z,45.80
2018-12-10T15:39:35.210Z,45.80
2018-12-10T15:42:01.029Z,45.90
2018-12-10T15:44:26.838Z,45.90
2018-12-10T15:46:52.669Z,46.00
2018-12-10T15:49:18.897Z,46.50
2018-12-10T15:51:45.123Z,45.90
2018-12-10T15:54:11.346Z,45.80
2018-12-10T15:56:37.170Z,45.80
2018-12-10T15:59:03.401Z,45.90
2018-12-10T16:01:29.617Z,45.80
2018-12-10T16:03:55.452Z,45.90
2018-12-10T16:06:21.676Z,45.80
2018-12-10T16:08:47.908Z,45.70
2018-12-10T16:11:14.117Z,45.80
2018-12-10T16:13:39.939Z,45.70
2018-12-10T16:16:05.961Z,45.70
2018-12-10T16:18:31.993Z,45.80
2018-12-10T16:20:57.812Z,45.60
2018-12-10T16:23:24.045Z,45.60
2018-12-10T16:25:50.267Z,45.80
2018-12-10T16:28:16.081Z,45.60
2018-12-10T16:30:42.305Z,45.60
2018-12-10T16:33:08.128Z,45.50
2018-12-10T16:35:33.955Z,45.60
2018-12-10T16:38:00.180Z,45.50
2018-12-10T16:40:26.006Z,45.40
2018-12-10T16:42:52.231Z,45.40
2018-12-10T16:45:18.041Z,45.40
2018-12-10T16:47:43.861Z,45.40
2018-12-10T16:50:09.684Z,45.40
2018-12-10T16:52:35.502Z,45.50
2018-12-10T16:55:01.318Z,45.60
2018-12-10T16:57:27.132Z,45.40
2018-12-10T16:59:52.962Z,45.40
2018-12-10T17:02:18.778Z,45.90
2018-12-10T17:04:44.596Z,45.20
2018-12-10T17:07:10.415Z,45.20
2018-12-10T17:09:36.228Z,45.20
2018-12-10T17:12:02.062Z,45.20
2018-12-10T17:14:28.276Z,45.20
2018-12-10T17:16:54.096Z,45.10
2018-12-10T17:19:19.913Z,45.10
2018-12-10T17:21:45.745Z,45.10
2018-12-10T17:24:11.962Z,45.20
2018-12-10T17:26:37.784Z,45.10
2018-12-10T17:29:03.597Z,45.20
2018-12-10T17:31:29.420Z,45.10
2018-12-10T17:33:55.238Z,45.20
2018-12-10T17:36:21.058Z,45.10
2018-12-10T17:38:46.889Z,45.20
2018-12-10T17:41:13.110Z,45.20
2018-12-10T17:43:38.929Z,45.20
2018-12-10T17:46:09.256Z,45.30
2018-12-10T17:48:35.096Z,45.50
2018-12-10T17:51:01.654Z,45.30
2018-12-10T17:53:27.527Z,45.20
2018-12-10T17:55:53.347Z,45.20
2018-12-10T17:58:19.166Z,45.10
2018-12-10T18:03:16.540Z,45.10
2018-12-10T18:08:13.899Z,45.20
2018-12-10T18:10:39.721Z,45.00
2018-12-10T18:13:05.543Z,45.10
2018-12-10T18:15:31.367Z,45.00
2018-12-10T18:17:57.194Z,45.10
2018-12-10T18:20:23.414Z,45.00
2018-12-10T18:22:49.228Z,45.10
2018-12-10T18:25:15.046Z,45.10
2018-12-10T18:27:40.866Z,45.10
2018-12-10T18:30:06.685Z,45.30
2018-12-10T18:32:32.927Z,45.20
2018-12-10T18:34:59.153Z,45.10
2018-12-10T18:37:25.369Z,45.10
2018-12-10T18:39:51.196Z,45.00
2018-12-10T18:42:21.108Z,45.10
2018-12-10T18:44:46.917Z,45.10
2018-12-10T18:47:12.734Z,45.10
2018-12-10T18:49:38.549Z,45.20
2018-12-10T18:52:04.380Z,45.30
2018-12-10T18:54:30.186Z,45.70
2018-12-10T18:56:56.004Z,45.10
2018-12-10T18:59:21.836Z,45.10
2018-12-10T19:01:47.641Z,45.10
2018-12-10T19:04:13.469Z,45.10
2018-12-10T19:06:39.697Z,45.00
2018-12-10T19:09:05.510Z,45.00
2018-12-10T19:11:31.351Z,45.20
2018-12-10T19:13:57.548Z,45.20
2018-12-10T19:16:23.374Z,45.20
2018-12-10T19:18:49.212Z,45.10
2018-12-10T19:21:15.014Z,45.20
2018-12-10T19:23:40.855Z,45.20
2018-12-10T19:26:06.929Z,45.30
2018-12-10T19:28:33.287Z,45.30
2018-12-10T19:30:59.107Z,45.40
2018-12-10T19:33:24.936Z,45.50
2018-12-10T19:35:51.151Z,45.50
2018-12-10T19:38:16.974Z,45.60
2018-12-10T19:40:43.205Z,45.50
2018-12-10T19:43:09.437Z,45.50
2018-12-10T19:45:35.663Z,45.50
2018-12-10T19:48:01.488Z,45.50
2018-12-10T19:50:27.710Z,45.60
2018-12-10T19:52:53.529Z,45.40
2018-12-10T19:55:19.347Z,45.30
2018-12-10T19:57:45.166Z,45.40
2018-12-10T20:00:10.986Z,45.30
2018-12-10T20:02:36.805Z,45.30
2018-12-10T20:05:03.029Z,45.30
2018-12-10T20:07:28.855Z,45.30
2018-12-10T20:09:54.673Z,45.30
2018-12-10T20:12:20.501Z,45.30
2018-12-10T20:14:46.725Z,45.20
2018-12-10T20:17:12.538Z,45.20
2018-12-10T20:19:39.177Z,45.20
2018-12-10T20:22:04.996Z,45.30
2018-12-10T20:24:30.812Z,45.30
2018-12-10T20:26:56.662Z,45.20
2018-12-10T20:29:22.862Z,45.30
2018-12-10T20:31:49.082Z,45.20
2018-12-10T20:34:14.965Z,45.80
2018-12-10T20:36:41.568Z,45.40
2018-12-10T20:39:07.783Z,45.30
2018-12-10T20:41:34.034Z,45.30
2018-12-10T20:44:00.258Z,45.40
2018-12-10T20:46:26.465Z,45.30
2018-12-10T20:48:52.731Z,45.30
2018-12-10T20:51:19.339Z,45.50
2018-12-10T20:53:45.567Z,45.50
2018-12-10T20:56:11.479Z,45.40
2018-12-10T20:58:37.419Z,45.40
2018-12-10T21:01:03.433Z,45.40
2018-12-10T21:03:29.667Z,45.30
2018-12-10T21:05:55.487Z,45.40
2018-12-10T21:08:21.306Z,45.40
2018-12-10T21:10:47.232Z,45.40
2018-12-10T21:13:13.786Z,45.30
2018-12-10T21:15:40.012Z,45.20
2018-12-10T21:18:06.221Z,45.30
2018-12-10T21:20:32.043Z,45.40
2018-12-10T21:22:58.276Z,45.40
2018-12-10T21:25:24.094Z,45.40
2018-12-10T21:27:49.919Z,45.40
2018-12-10T21:30:15.740Z,45.50
2018-12-10T21:32:41.556Z,45.40
2018-12-10T21:35:07.375Z,45.40
2018-12-10T21:37:33.183Z,45.40
2018-12-10T21:39:59.023Z,45.40
2018-12-10T21:42:25.787Z,45.40
2018-12-10T21:44:51.828Z,45.30
2018-12-10T21:47:17.633Z,45.30
2018-12-10T21:49:43.531Z,45.30
2018-12-10T21:52:09.766Z,45.40
2018-12-10T21:54:35.986Z,45.40
2018-12-10T21:57:01.805Z,45.30
2018-12-10T21:59:28.033Z,45.30
2018-12-10T22:01:53.871Z,45.40
2018-12-10T22:04:20.097Z,45.40
2018-12-10T22:06:45.901Z,45.50
2018-12-10T22:09:11.733Z,45.30
2018-12-10T22:11:37.547Z,45.90
2018-12-10T22:14:03.357Z,45.40
2018-12-10T22:16:29.184Z,45.20
2018-12-10T22:18:55.004Z,45.30
2018-12-10T22:21:20.817Z,45.40
2018-12-10T22:23:46.654Z,45.30
2018-12-10T22:26:12.869Z,45.40
2018-12-10T22:28:38.698Z,45.40
2018-12-10T22:31:04.928Z,45.60
2018-12-10T22:33:31.165Z,45.60
2018-12-10T22:35:57.389Z,45.70
2018-12-10T22:38:23.212Z,45.60
2018-12-10T22:40:49.026Z,45.60
2018-12-10T22:43:14.846Z,45.50
2018-12-10T22:45:41.082Z,45.50
2018-12-10T22:48:06.890Z,45.70
2018-12-10T22:50:33.137Z,45.70
2018-12-10T22:52:59.180Z,45.80
2018-12-10T22:55:25.185Z,45.60
2018-12-10T22:57:51.397Z,45.60
2018-12-10T23:00:17.212Z,45.70
2018-12-10T23:02:43.044Z,45.70
2018-12-10T23:05:09.677Z,45.60
2018-12-10T23:07:35.504Z,45.60
2018-12-10T23:10:01.331Z,45.70
2018-12-10T23:12:27.549Z,45.70
2018-12-10T23:14:53.372Z,45.70
2018-12-10T23:17:19.193Z,45.80
2018-12-10T23:19:45.006Z,45.80
2018-12-10T23:22:10.833Z,45.90
2018-12-10T23:24:36.654Z,45.90
2018-12-10T23:27:02.466Z,46.30
2018-12-10T23:29:28.294Z,45.70
2018-12-10T23:31:54.111Z,45.80
2018-12-10T23:34:19.941Z,46.10
2018-12-10T23:36:46.164Z,45.50
2018-12-10T23:39:11.986Z,45.60
2018-12-10T23:41:38.216Z,45.60
2018-12-10T23:44:04.039Z,45.60
2018-12-10T23:46:33.136Z,45.80
2018-12-10T23:48:58.949Z,45.80
2018-12-10T23:51:25.178Z,45.90
2018-12-10T23:53:50.996Z,45.90
2018-12-10T23:56:16.828Z,45.90
2018-12-10T23:58:43.473Z,45.90
